Terminal Aerodrome Forecast
Issued by NWS

Home | Current Version | Previous Version | Text Only | Print | Product List | Glossary On
Versions: 1 2 3 4 5 6 7 8 9 10 11 12 13 14
000
FTUS43 KGRR 292213 AAA
TAFLAN
TAF AMD
KLAN 292213Z 2922/3018 19010KT P6SM SCT050
     FM292240 19010KT 4SM -SHRA BKN040
      TEMPO 2923/2924 1 1/2SM +SHRA BR
     FM300100 19006KT P6SM OVC100
     FM301000 21008KT P6SM VCSH OVC050
     FM301200 24010KT 3SM -RA BR OVC012
     FM301500 30010KT 2SM -RA BR OVC007=

USA.gov is the U.S. government's official web portal to all federal, state and local government web resources and services.